createdAt,value
2019-04-01T00:00:14.224Z,1022.28
2019-04-01T00:01:14.146Z,1022.28
2019-04-01T00:02:14.064Z,1022.28
2019-04-01T00:03:13.973Z,1022.28
2019-04-01T00:04:13.885Z,1022.30
2019-04-01T00:05:13.798Z,1022.31
2019-04-01T00:06:13.715Z,1022.31
2019-04-01T00:07:13.628Z,1022.35
2019-04-01T00:08:13.548Z,1022.37
2019-04-01T00:09:13.466Z,1022.34
2019-04-01T00:10:13.373Z,1022.41
2019-04-01T00:11:13.291Z,1022.38
2019-04-01T00:12:13.197Z,1022.40
2019-04-01T00:13:13.118Z,1022.39
2019-04-01T00:14:13.035Z,1022.37
2019-04-01T00:15:12.949Z,1022.41
2019-04-01T00:16:12.862Z,1022.45
2019-04-01T00:17:12.773Z,1022.42
2019-04-01T00:18:12.687Z,1022.46
2019-04-01T00:19:12.606Z,1022.47
2019-04-01T00:20:12.514Z,1022.43
2019-04-01T00:21:12.426Z,1022.42
2019-04-01T00:22:12.337Z,1022.42
2019-04-01T00:23:12.310Z,1022.44
2019-04-01T00:24:12.174Z,1022.40
2019-04-01T00:25:12.089Z,1022.45
2019-04-01T00:26:12.000Z,1022.42
2019-04-01T00:27:11.914Z,1022.41
2019-04-01T00:28:11.826Z,1022.45
2019-04-01T00:29:11.738Z,1022.41
2019-04-01T00:30:11.664Z,1022.43
2019-04-01T00:31:11.576Z,1022.38
2019-04-01T00:32:11.489Z,1022.38
2019-04-01T00:33:11.399Z,1022.41
2019-04-01T00:34:11.314Z,1022.39
2019-04-01T00:35:11.226Z,1022.41
2019-04-01T00:36:11.142Z,1022.42
2019-04-01T00:37:11.064Z,1022.43
2019-04-01T00:38:10.968Z,1022.48
2019-04-01T00:39:10.889Z,1022.42
2019-04-01T00:40:10.801Z,1022.46
2019-04-01T00:41:10.714Z,1022.40
2019-04-01T00:42:10.626Z,1022.42
2019-04-01T00:43:10.541Z,1022.42
2019-04-01T00:44:10.451Z,1022.40
2019-04-01T00:45:10.373Z,1022.43
2019-04-01T00:46:10.280Z,1022.43
2019-04-01T00:47:10.202Z,1022.44
2019-04-01T00:48:10.116Z,1022.44
2019-04-01T00:49:10.027Z,1022.51
2019-04-01T00:50:09.941Z,1022.47
2019-04-01T00:51:09.852Z,1022.51
2019-04-01T00:52:09.765Z,1022.50
2019-04-01T00:53:09.680Z,1022.50
2019-04-01T00:54:09.591Z,1022.52
2019-04-01T00:55:09.506Z,1022.51
2019-04-01T00:56:09.428Z,1022.50
2019-04-01T00:57:09.344Z,1022.45
2019-04-01T00:58:09.255Z,1022.45
2019-04-01T00:59:09.166Z,1022.44
2019-04-01T01:00:09.079Z,1022.45
2019-04-01T01:01:08.997Z,1022.46
2019-04-01T01:02:08.904Z,1022.47
2019-04-01T01:03:08.817Z,1022.47
2019-04-01T01:04:08.742Z,1022.47
2019-04-01T01:05:08.654Z,1022.46
2019-04-01T01:06:08.571Z,1022.43
2019-04-01T01:07:08.479Z,1022.40
2019-04-01T01:08:08.392Z,1022.45
2019-04-01T01:09:08.307Z,1022.45
2019-04-01T01:10:08.217Z,1022.45
2019-04-01T01:11:08.137Z,1022.47
2019-04-01T01:12:08.043Z,1022.47
2019-04-01T01:13:07.959Z,1022.47
2019-04-01T01:14:07.880Z,1022.46
2019-04-01T01:15:07.799Z,1022.43
2019-04-01T01:16:07.710Z,1022.45
2019-04-01T01:17:07.619Z,1022.46
2019-04-01T01:18:07.530Z,1022.50
2019-04-01T01:19:07.444Z,1022.45
2019-04-01T01:20:07.355Z,1022.46
2019-04-01T01:21:07.269Z,1022.50
2019-04-01T01:22:07.194Z,1022.50
2019-04-01T01:23:07.094Z,1022.49
2019-04-01T01:24:07.019Z,1022.43
2019-04-01T01:25:06.937Z,1022.45
2019-04-01T01:26:06.844Z,1022.46
2019-04-01T01:27:06.762Z,1022.43
2019-04-01T01:28:06.670Z,1022.51
2019-04-01T01:29:06.583Z,1022.50
2019-04-01T01:30:06.495Z,1022.48
2019-04-01T01:31:06.407Z,1022.49
2019-04-01T01:32:06.329Z,1022.48
2019-04-01T01:33:06.233Z,1022.43
2019-04-01T01:34:06.157Z,1022.45
2019-04-01T01:35:06.072Z,1022.44
2019-04-01T01:36:05.995Z,1022.42
2019-04-01T01:37:05.896Z,1022.46
2019-04-01T01:38:05.807Z,1022.48
2019-04-01T01:39:05.803Z,1022.48
2019-04-01T01:40:05.633Z,1022.50
2019-04-01T01:41:05.545Z,1022.51
2019-04-01T01:42:05.457Z,1022.52
2019-04-01T01:43:05.371Z,1022.51
2019-04-01T01:44:05.285Z,1022.48
2019-04-01T01:45:05.208Z,1022.50
2019-04-01T01:46:05.123Z,1022.51
2019-04-01T01:47:05.035Z,1022.54
2019-04-01T01:48:04.948Z,1022.53
2019-04-01T01:49:04.859Z,1022.53
2019-04-01T01:50:04.772Z,1022.55
2019-04-01T01:51:04.687Z,1022.55
2019-04-01T01:52:04.597Z,1022.54
2019-04-01T01:53:04.512Z,1022.57
2019-04-01T01:54:04.425Z,1022.58
2019-04-01T01:55:04.337Z,1022.56
2019-04-01T01:56:04.259Z,1022.54
2019-04-01T01:57:04.178Z,1022.54
2019-04-01T01:58:04.085Z,1022.55
2019-04-01T01:59:04.000Z,1022.60
2019-04-01T02:00:03.915Z,1022.60
2019-04-01T02:01:03.824Z,1022.57
2019-04-01T02:02:03.737Z,1022.57
2019-04-01T02:03:03.649Z,1022.62
2019-04-01T02:04:03.575Z,1022.62
2019-04-01T02:05:03.477Z,1022.60
2019-04-01T02:06:03.386Z,1022.62
2019-04-01T02:07:03.303Z,1022.60
2019-04-01T02:08:03.223Z,1022.57
2019-04-01T02:09:03.137Z,1022.66
2019-04-01T02:10:03.050Z,1022.62
2019-04-01T02:11:02.979Z,1022.66
2019-04-01T02:12:02.874Z,1022.70
2019-04-01T02:13:02.787Z,1022.68
2019-04-01T02:14:02.701Z,1022.66
2019-04-01T02:15:02.611Z,1022.69
2019-04-01T02:16:02.525Z,1022.64
2019-04-01T02:17:02.438Z,1022.65
2019-04-01T02:18:02.351Z,1022.64
2019-04-01T02:19:02.263Z,1022.66
2019-04-01T02:20:02.189Z,1022.67
2019-04-01T02:21:02.108Z,1022.67
2019-04-01T02:22:02.013Z,1022.68
2019-04-01T02:23:01.926Z,1022.69
2019-04-01T02:24:01.838Z,1022.70
2019-04-01T02:25:01.751Z,1022.69
2019-04-01T02:26:01.668Z,1022.70
2019-04-01T02:27:01.577Z,1022.70
2019-04-01T02:28:01.501Z,1022.72
2019-04-01T02:29:01.402Z,1022.69
2019-04-01T02:30:01.314Z,1022.71
2019-04-01T02:31:01.233Z,1022.70
2019-04-01T02:32:01.139Z,1022.71
2019-04-01T02:33:01.056Z,1022.75
2019-04-01T02:34:00.966Z,1022.72
2019-04-01T02:35:00.941Z,1022.69
2019-04-01T02:36:00.803Z,1022.70
2019-04-01T02:37:00.714Z,1022.69
2019-04-01T02:38:00.630Z,1022.67
2019-04-01T02:39:00.541Z,1022.69
2019-04-01T02:40:00.571Z,1022.67
2019-04-01T02:41:00.367Z,1022.64
2019-04-01T02:42:00.279Z,1022.68
2019-04-01T02:43:00.194Z,1022.69
2019-04-01T02:44:00.104Z,1022.70
2019-04-01T02:45:00.024Z,1022.75
2019-04-01T02:45:59.930Z,1022.72
2019-04-01T02:46:59.854Z,1022.75
2019-04-01T02:47:59.755Z,1022.71
2019-04-01T02:48:59.681Z,1022.71
2019-04-01T02:49:59.594Z,1022.68
2019-04-01T02:50:59.505Z,1022.70
2019-04-01T02:51:59.421Z,1022.71
2019-04-01T02:52:59.330Z,1022.71
2019-04-01T02:53:59.244Z,1022.73
2019-04-01T02:54:59.156Z,1022.77
2019-04-01T02:55:59.072Z,1022.76
2019-04-01T02:56:58.981Z,1022.77
2019-04-01T02:57:58.891Z,1022.74
2019-04-01T02:58:58.806Z,1022.72
2019-04-01T02:59:58.720Z,1022.69
2019-04-01T03:00:58.643Z,1022.70
2019-04-01T03:01:58.543Z,1022.71
2019-04-01T03:02:58.474Z,1022.72
2019-04-01T03:03:58.373Z,1022.66
2019-04-01T03:04:58.293Z,1022.64
2019-04-01T03:05:58.194Z,1022.64
2019-04-01T03:06:58.118Z,1022.70
2019-04-01T03:07:58.035Z,1022.68
2019-04-01T03:08:58.070Z,1022.68
2019-04-01T03:09:57.856Z,1022.73
2019-04-01T03:10:57.771Z,1022.70
2019-04-01T03:11:57.683Z,1022.75
2019-04-01T03:12:57.594Z,1022.68
2019-04-01T03:13:57.515Z,1022.67
2019-04-01T03:14:57.440Z,1022.64
2019-04-01T03:15:57.339Z,1022.62
2019-04-01T03:16:57.250Z,1022.65
2019-04-01T03:17:57.225Z,1022.66
2019-04-01T03:18:57.075Z,1022.66
2019-04-01T03:19:56.984Z,1022.73
2019-04-01T03:20:56.905Z,1022.72
2019-04-01T03:21:56.808Z,1022.71
2019-04-01T03:22:56.743Z,1022.69
2019-04-01T03:23:56.633Z,1022.68
2019-04-01T03:24:56.549Z,1022.63
2019-04-01T03:25:56.462Z,1022.64
2019-04-01T03:26:56.384Z,1022.63
2019-04-01T03:27:56.296Z,1022.69
2019-04-01T03:28:56.211Z,1022.66
2019-04-01T03:29:56.132Z,1022.67
2019-04-01T03:30:56.036Z,1022.65
2019-04-01T03:31:55.946Z,1022.68
2019-04-01T03:32:55.900Z,1022.67
2019-04-01T03:33:55.772Z,1022.66
2019-04-01T03:34:55.685Z,1022.64
2019-04-01T03:35:55.596Z,1022.66
2019-04-01T03:36:55.514Z,1022.64
2019-04-01T03:37:55.425Z,1022.65
2019-04-01T03:38:55.339Z,1022.64
2019-04-01T03:39:55.259Z,1022.72
2019-04-01T03:40:55.173Z,1022.70
2019-04-01T03:41:55.072Z,1022.68
2019-04-01T03:42:54.986Z,1022.66
2019-04-01T03:43:54.898Z,1022.64
2019-04-01T03:44:55.339Z,1022.65
2019-04-01T03:45:54.852Z,1022.62
2019-04-01T03:46:54.638Z,1022.62
2019-04-01T03:47:54.570Z,1022.64
2019-04-01T03:48:54.461Z,1022.66
2019-04-01T03:49:54.373Z,1022.70
2019-04-01T03:50:54.322Z,1022.69
2019-04-01T03:51:54.212Z,1022.67
2019-04-01T03:52:54.124Z,1022.66
2019-04-01T03:53:54.038Z,1022.63
2019-04-01T03:54:53.949Z,1022.65
2019-04-01T03:55:53.861Z,1022.62
2019-04-01T03:56:53.777Z,1022.67
2019-04-01T03:57:53.686Z,1022.67
2019-04-01T03:58:53.602Z,1022.65
2019-04-01T03:59:53.524Z,1022.65
2019-04-01T04:00:53.424Z,1022.67
2019-04-01T04:01:53.338Z,1022.65
2019-04-01T04:02:53.249Z,1022.64
2019-04-01T04:03:53.164Z,1022.63
2019-04-01T04:04:53.074Z,1022.65
2019-04-01T04:05:52.990Z,1022.72
2019-04-01T04:06:52.900Z,1022.70
2019-04-01T04:07:52.814Z,1022.71
2019-04-01T04:08:52.725Z,1022.68
2019-04-01T04:09:52.639Z,1022.72
2019-04-01T04:10:52.550Z,1022.67
2019-04-01T04:11:52.464Z,1022.64
2019-04-01T04:12:52.381Z,1022.68
2019-04-01T04:13:52.301Z,1022.66
2019-04-01T04:14:52.201Z,1022.67
2019-04-01T04:15:52.115Z,1022.69
2019-04-01T04:16:52.025Z,1022.70
2019-04-01T04:17:51.941Z,1022.66
2019-04-01T04:18:51.852Z,1022.69
2019-04-01T04:19:51.767Z,1022.67
2019-04-01T04:20:51.689Z,1022.71
2019-04-01T04:21:51.594Z,1022.72
2019-04-01T04:22:51.503Z,1022.71
2019-04-01T04:23:51.422Z,1022.70
2019-04-01T04:24:51.328Z,1022.73
2019-04-01T04:25:51.243Z,1022.70
2019-04-01T04:26:51.153Z,1022.73
2019-04-01T04:27:51.089Z,1022.74
2019-04-01T04:28:50.994Z,1022.70
2019-04-01T04:29:50.902Z,1022.70
2019-04-01T04:30:50.823Z,1022.68
2019-04-01T04:31:50.727Z,1022.72
2019-04-01T04:32:50.644Z,1022.67
2019-04-01T04:33:50.552Z,1022.68
2019-04-01T04:34:50.469Z,1022.65
2019-04-01T04:35:50.387Z,1022.69
2019-04-01T04:36:50.293Z,1022.70
2019-04-01T04:37:50.204Z,1022.69
2019-04-01T04:38:50.118Z,1022.68
2019-04-01T04:39:50.028Z,1022.69
2019-04-01T04:40:49.942Z,1022.71
2019-04-01T04:41:49.855Z,1022.73
2019-04-01T04:42:49.766Z,1022.80
2019-04-01T04:43:49.679Z,1022.80
2019-04-01T04:44:49.592Z,1022.81
2019-04-01T04:45:49.516Z,1022.78
2019-04-01T04:46:49.507Z,1022.82
2019-04-01T04:47:49.330Z,1022.80
2019-04-01T04:48:49.242Z,1022.82
2019-04-01T04:49:49.154Z,1022.83
2019-04-01T04:50:49.071Z,1022.80
2019-04-01T04:51:48.979Z,1022.86
2019-04-01T04:52:48.894Z,1022.84
2019-04-01T04:53:48.806Z,1022.86
2019-04-01T04:54:48.717Z,1022.89
2019-04-01T04:55:48.629Z,1022.91
2019-04-01T04:56:48.543Z,1022.87
2019-04-01T04:57:48.455Z,1022.88
2019-04-01T04:58:48.368Z,1022.87
2019-04-01T04:59:48.280Z,1022.87
2019-04-01T05:00:48.204Z,1022.86
2019-04-01T05:01:48.106Z,1022.84
2019-04-01T05:02:48.019Z,1022.86
2019-04-01T05:03:47.931Z,1022.90
2019-04-01T05:04:47.844Z,1022.92
2019-04-01T05:05:47.756Z,1022.90
2019-04-01T05:06:47.670Z,1022.95
2019-04-01T05:07:47.581Z,1022.96
2019-04-01T05:08:47.499Z,1022.94
2019-04-01T05:09:47.407Z,1022.91
2019-04-01T05:10:47.319Z,1022.93
2019-04-01T05:11:47.231Z,1022.91
2019-04-01T05:12:47.146Z,1022.94
2019-04-01T05:13:47.057Z,1022.95
2019-04-01T05:14:46.971Z,1022.90
2019-04-01T05:15:46.884Z,1022.96
2019-04-01T05:16:46.795Z,1022.98
2019-04-01T05:17:46.709Z,1022.96
2019-04-01T05:18:46.621Z,1023.02
2019-04-01T05:19:46.533Z,1023.04
2019-04-01T05:20:46.457Z,1023.03
2019-04-01T05:21:46.358Z,1023.00
2019-04-01T05:22:46.271Z,1022.98
2019-04-01T05:23:46.195Z,1023.07
2019-04-01T05:24:46.096Z,1023.15
2019-04-01T05:25:46.008Z,1023.10
2019-04-01T05:26:45.921Z,1023.11
2019-04-01T05:27:45.835Z,1023.12
2019-04-01T05:28:45.758Z,1023.17
2019-04-01T05:29:45.663Z,1023.16
2019-04-01T05:30:45.584Z,1023.15
2019-04-01T05:31:45.497Z,1023.21
2019-04-01T05:32:45.409Z,1023.23
2019-04-01T05:33:55.173Z,1023.17
2019-04-01T05:34:45.234Z,1023.22
2019-04-01T05:35:45.147Z,1023.19
2019-04-01T05:36:45.059Z,1023.22
2019-04-01T05:37:44.973Z,1023.23
2019-04-01T05:38:44.885Z,1023.21
2019-04-01T05:39:44.800Z,1023.23
2019-04-01T05:40:44.710Z,1023.23
2019-04-01T05:41:44.623Z,1023.27
2019-04-01T05:42:44.535Z,1023.30
2019-04-01T05:43:44.448Z,1023.30
2019-04-01T05:44:44.360Z,1023.32
2019-04-01T05:45:44.281Z,1023.28
2019-04-01T05:46:44.185Z,1023.32
2019-04-01T05:47:44.099Z,1023.32
2019-04-01T05:48:44.014Z,1023.33
2019-04-01T05:49:43.924Z,1023.35
2019-04-01T05:50:43.849Z,1023.37
2019-04-01T05:51:43.761Z,1023.36
2019-04-01T05:52:43.677Z,1023.35
2019-04-01T05:53:43.586Z,1023.39
2019-04-01T05:54:43.501Z,1023.40
2019-04-01T05:55:43.411Z,1023.41
2019-04-01T05:56:43.325Z,1023.42
2019-04-01T05:57:43.238Z,1023.42
2019-04-01T05:58:43.150Z,1023.42
2019-04-01T05:59:43.062Z,1023.46
2019-04-01T06:00:42.975Z,1023.44
2019-04-01T06:01:42.887Z,1023.43
2019-04-01T06:02:42.800Z,1023.45
2019-04-01T06:03:42.726Z,1023.46
2019-04-01T06:04:42.637Z,1023.43
2019-04-01T06:05:42.551Z,1023.44
2019-04-01T06:06:42.477Z,1023.47
2019-04-01T06:07:42.377Z,1023.53
2019-04-01T06:08:42.289Z,1023.48
2019-04-01T06:09:42.201Z,1023.48
2019-04-01T06:10:42.113Z,1023.48
2019-04-01T06:11:42.039Z,1023.48
2019-04-01T06:12:41.952Z,1023.49
2019-04-01T06:13:41.864Z,1023.50
2019-04-01T06:14:41.780Z,1023.52
2019-04-01T06:15:41.688Z,1023.55
2019-04-01T06:16:41.602Z,1023.52
2019-04-01T06:17:41.528Z,1023.52
2019-04-01T06:18:41.428Z,1023.52
2019-04-01T06:19:41.357Z,1023.57
2019-04-01T06:20:41.264Z,1023.53
2019-04-01T06:21:41.177Z,1023.54
2019-04-01T06:22:41.089Z,1023.56
2019-04-01T06:23:41.003Z,1023.59
2019-04-01T06:24:40.932Z,1023.60
2019-04-01T06:25:40.840Z,1023.57
2019-04-01T06:26:40.755Z,1023.55
2019-04-01T06:27:40.664Z,1023.57
2019-04-01T06:28:40.578Z,1023.62
2019-04-01T06:29:40.490Z,1023.55
2019-04-01T06:30:40.428Z,1023.56
2019-04-01T06:31:40.328Z,1023.63
2019-04-01T06:32:40.242Z,1023.62
2019-04-01T06:33:40.153Z,1023.62
2019-04-01T06:34:52.372Z,1023.60
2019-04-01T06:35:39.990Z,1023.66
2019-04-01T06:36:39.906Z,1023.66
2019-04-01T06:37:39.818Z,1023.68
2019-04-01T06:38:39.729Z,1023.70
2019-04-01T06:39:39.643Z,1023.69
2019-04-01T06:40:39.567Z,1023.65
2019-04-01T06:41:39.480Z,1023.71
2019-04-01T06:42:39.393Z,1023.69
2019-04-01T06:43:39.305Z,1023.71
2019-04-01T06:44:39.219Z,1023.72
2019-04-01T06:45:39.143Z,1023.74
2019-04-01T06:46:39.056Z,1023.71
2019-04-01T06:47:38.967Z,1023.73
2019-04-01T06:48:38.881Z,1023.70
2019-04-01T06:49:38.812Z,1023.74
2019-04-01T06:50:38.721Z,1023.75
2019-04-01T06:51:38.642Z,1023.75
2019-04-01T06:52:38.542Z,1023.77
2019-04-01T06:53:38.463Z,1023.76
2019-04-01T06:54:38.373Z,1023.78
2019-04-01T06:55:38.308Z,1023.78
2019-04-01T06:56:38.207Z,1023.77
2019-04-01T06:57:38.118Z,1023.79
2019-04-01T06:58:38.036Z,1023.81
2019-04-01T06:59:37.957Z,1023.77
2019-04-01T07:00:37.868Z,1023.80
2019-04-01T07:01:37.782Z,1023.80
2019-04-01T07:02:37.695Z,1023.81
2019-04-01T07:03:37.619Z,1023.83
2019-04-01T07:04:37.532Z,1023.82
2019-04-01T07:05:37.445Z,1023.85
2019-04-01T07:06:37.359Z,1023.82
2019-04-01T07:07:37.282Z,1023.85
2019-04-01T07:08:37.196Z,1023.90
2019-04-01T07:09:37.109Z,1023.91
2019-04-01T07:10:37.033Z,1023.91
2019-04-01T07:11:37.070Z,1023.92
2019-04-01T07:12:36.860Z,1023.97
2019-04-01T07:13:39.880Z,1023.92
2019-04-01T07:14:36.697Z,1023.96
2019-04-01T07:15:36.608Z,1023.91
2019-04-01T07:16:39.835Z,1023.89
2019-04-01T07:17:36.434Z,1023.90
2019-04-01T07:18:36.350Z,1023.91
2019-04-01T07:19:36.270Z,1023.99
2019-04-01T07:20:36.199Z,1023.99
2019-04-01T07:21:36.097Z,1023.99
2019-04-01T07:22:36.034Z,1023.91
2019-04-01T07:23:35.935Z,1023.92
2019-04-01T07:24:35.846Z,1023.95
2019-04-01T07:25:35.759Z,1023.94
2019-04-01T07:26:35.684Z,1023.94
2019-04-01T07:27:35.599Z,1023.96
2019-04-01T07:28:35.510Z,1023.97
2019-04-01T07:29:35.436Z,1023.96
2019-04-01T07:30:35.347Z,1023.97
2019-04-01T07:31:35.260Z,1023.91
2019-04-01T07:32:35.185Z,1023.90
2019-04-01T07:33:35.098Z,1024.00
2019-04-01T07:34:35.023Z,1023.96
2019-04-01T07:35:34.935Z,1023.97
2019-04-01T07:36:34.847Z,1024.01
2019-04-01T07:37:34.773Z,1023.95
2019-04-01T07:38:34.697Z,1024.02
2019-04-01T07:39:34.600Z,1023.99
2019-04-01T07:40:34.523Z,1024.01
2019-04-01T07:41:34.438Z,1023.99
2019-04-01T07:42:34.364Z,1023.93
2019-04-01T07:43:34.275Z,1023.98
2019-04-01T07:44:34.198Z,1023.97
2019-04-01T07:45:34.121Z,1023.98
2019-04-01T07:46:34.038Z,1023.98
2019-04-01T07:47:33.949Z,1023.94
2019-04-01T07:48:33.890Z,1024.00
2019-04-01T07:49:33.788Z,1024.00
2019-04-01T07:50:33.718Z,1024.01
2019-04-01T07:51:33.624Z,1024.06
2019-04-01T07:52:33.549Z,1024.07
2019-04-01T07:53:33.464Z,1024.09
2019-04-01T07:54:33.378Z,1024.06
2019-04-01T07:55:33.316Z,1024.04
2019-04-01T07:56:33.227Z,1024.10
2019-04-01T07:57:33.138Z,1024.03
2019-04-01T07:58:33.067Z,1024.04
2019-04-01T07:59:32.976Z,1024.06
2019-04-01T08:00:32.901Z,1024.09
2019-04-01T08:01:32.814Z,1024.12
2019-04-01T08:02:32.738Z,1024.08
2019-04-01T08:03:32.651Z,1024.04
2019-04-01T08:04:32.576Z,1024.11
2019-04-01T08:05:32.489Z,1024.18
2019-04-01T08:06:32.437Z,1024.14
2019-04-01T08:07:32.362Z,1024.18
2019-04-01T08:08:32.252Z,1024.20
2019-04-01T08:09:32.177Z,1024.19
2019-04-01T08:10:32.090Z,1024.14
2019-04-01T08:11:32.015Z,1024.19
2019-04-01T08:12:31.930Z,1024.18
2019-04-01T08:13:31.868Z,1024.23
2019-04-01T08:14:31.777Z,1024.26
2019-04-01T08:15:31.691Z,1024.19
2019-04-01T08:16:31.670Z,1024.24
2019-04-01T08:17:31.528Z,1024.24
2019-04-01T08:18:33.949Z,1024.18
2019-04-01T08:19:31.367Z,1024.16
2019-04-01T08:20:31.292Z,1024.18
2019-04-01T08:21:31.216Z,1024.17
2019-04-01T08:22:31.128Z,1024.22
2019-04-01T08:23:31.053Z,1024.17
2019-04-01T08:24:30.966Z,1024.19
2019-04-01T08:25:30.896Z,1024.14
2019-04-01T08:26:30.818Z,1024.16
2019-04-01T08:27:30.728Z,1024.17
2019-04-01T08:28:30.657Z,1024.17
2019-04-01T08:29:30.924Z,1024.13
2019-04-01T08:30:30.493Z,1024.06
2019-04-01T08:31:30.416Z,1024.10
2019-04-01T08:32:30.330Z,1024.10
2019-04-01T08:33:30.257Z,1024.15
2019-04-01T08:34:30.175Z,1024.18
2019-04-01T08:35:30.094Z,1024.19
2019-04-01T08:36:30.017Z,1024.18
2019-04-01T08:37:29.929Z,1024.14
2019-04-01T08:38:29.858Z,1024.16
2019-04-01T08:39:29.768Z,1024.06
2019-04-01T08:40:29.693Z,1024.10
2019-04-01T08:41:29.618Z,1024.15
2019-04-01T08:42:29.530Z,1024.14
2019-04-01T08:43:29.456Z,1024.13
2019-04-01T08:44:29.373Z,1024.16
2019-04-01T08:45:29.294Z,1024.13
2019-04-01T08:46:29.219Z,1024.14
2019-04-01T08:47:29.131Z,1024.16
2019-04-01T08:48:29.056Z,1024.13
2019-04-01T08:49:28.981Z,1024.15
2019-04-01T08:50:28.894Z,1024.18
2019-04-01T08:51:28.820Z,1024.11
2019-04-01T08:52:28.733Z,1024.10
2019-04-01T08:53:28.670Z,1024.15
2019-04-01T08:54:28.581Z,1024.10
2019-04-01T08:55:28.499Z,1024.18
2019-04-01T08:56:28.420Z,1024.12
2019-04-01T08:57:28.348Z,1024.13
2019-04-01T08:58:28.258Z,1024.14
2019-04-01T08:59:28.188Z,1024.09
2019-04-01T09:00:28.121Z,1024.16
2019-04-01T09:01:35.120Z,1024.16
2019-04-01T09:02:28.043Z,1024.13
2019-04-01T09:03:27.858Z,1024.08
2019-04-01T09:04:27.794Z,1024.09
2019-04-01T09:05:27.707Z,1024.11
2019-04-01T09:06:31.103Z,1024.09
2019-04-01T09:07:27.546Z,1024.07
2019-04-01T09:08:27.471Z,1024.09
2019-04-01T09:09:27.395Z,1024.13
2019-04-01T09:10:27.308Z,1024.04
2019-04-01T09:11:27.222Z,1024.05
2019-04-01T09:12:27.149Z,1024.02
2019-04-01T09:13:27.062Z,1024.08
2019-04-01T09:14:27.001Z,1024.11
2019-04-01T09:15:26.909Z,1024.01
2019-04-01T09:16:26.825Z,1024.04
2019-04-01T09:17:26.749Z,1023.99
2019-04-01T09:18:26.659Z,1023.99
2019-04-01T09:19:26.587Z,1024.00
2019-04-01T09:20:26.509Z,1023.99
2019-04-01T09:21:26.424Z,1024.00
2019-04-01T09:22:26.348Z,1023.90
2019-04-01T09:23:26.261Z,1023.90
2019-04-01T09:24:26.185Z,1023.88
2019-04-01T09:25:26.098Z,1023.87
2019-04-01T09:26:26.025Z,1023.88
2019-04-01T09:27:25.937Z,1023.89
2019-04-01T09:28:25.860Z,1023.93
2019-04-01T09:29:25.785Z,1023.82
2019-04-01T09:30:25.700Z,1023.79
2019-04-01T09:31:25.624Z,1023.79
2019-04-01T09:32:25.536Z,1023.82
2019-04-01T09:33:25.461Z,1023.77
2019-04-01T09:34:25.388Z,1023.70
2019-04-01T09:35:25.299Z,1023.69
2019-04-01T09:36:25.225Z,1023.71
2019-04-01T09:37:25.138Z,1023.72
2019-04-01T09:38:25.061Z,1023.70
2019-04-01T09:39:24.978Z,1023.70
2019-04-01T09:40:24.900Z,1023.75
2019-04-01T09:41:24.811Z,1023.68
2019-04-01T09:42:24.741Z,1023.60
2019-04-01T09:43:24.650Z,1023.65
2019-04-01T09:44:36.043Z,1023.67
2019-04-01T09:45:24.487Z,1023.64
2019-04-01T09:46:24.412Z,1023.65
2019-04-01T09:47:24.326Z,1023.64
2019-04-01T09:48:24.251Z,1023.65
2019-04-01T09:49:24.163Z,1023.62
2019-04-01T09:50:24.087Z,1023.62
2019-04-01T09:51:24.001Z,1023.64
2019-04-01T09:52:23.926Z,1023.55
2019-04-01T09:53:23.841Z,1023.58
2019-04-01T09:54:23.763Z,1023.57
2019-04-01T09:55:23.677Z,1023.54
2019-04-01T09:56:23.590Z,1023.51
2019-04-01T09:57:23.514Z,1023.48
2019-04-01T09:58:23.429Z,1023.54
2019-04-01T09:59:23.352Z,1023.43
2019-04-01T10:00:23.266Z,1023.39
2019-04-01T10:01:23.194Z,1023.36
2019-04-01T10:02:31.654Z,1023.45
2019-04-01T10:03:23.015Z,1023.40
2019-04-01T10:04:22.939Z,1023.45
2019-04-01T10:05:22.852Z,1023.38
2019-04-01T10:06:22.779Z,1023.46
2019-04-01T10:07:22.796Z,1023.41
2019-04-01T10:08:22.615Z,1023.45
2019-04-01T10:09:22.529Z,1023.36
2019-04-01T10:10:22.442Z,1023.38
2019-04-01T10:11:22.365Z,1023.33
2019-04-01T10:12:22.278Z,1023.33
2019-04-01T10:13:22.195Z,1023.32
2019-04-01T10:14:22.129Z,1023.27
2019-04-01T10:15:22.029Z,1023.33
2019-04-01T10:16:21.959Z,1023.38
2019-04-01T10:17:21.866Z,1023.27
2019-04-01T10:18:21.780Z,1023.29
2019-04-01T10:19:21.704Z,1023.28
2019-04-01T10:20:21.632Z,1023.26
2019-04-01T10:21:21.541Z,1023.24
2019-04-01T10:22:21.455Z,1023.26
2019-04-01T10:23:21.367Z,1023.29
2019-04-01T10:24:21.292Z,1023.25
2019-04-01T10:25:21.204Z,1023.24
2019-04-01T10:26:21.130Z,1023.20
2019-04-01T10:27:21.046Z,1023.12
2019-04-01T10:28:20.955Z,1023.15
2019-04-01T10:29:20.882Z,1023.17
2019-04-01T10:30:20.793Z,1023.24
2019-04-01T10:31:20.719Z,1023.27
2019-04-01T10:32:20.631Z,1023.24
2019-04-01T10:33:20.544Z,1023.35
2019-04-01T10:34:20.470Z,1023.26
2019-04-01T10:35:20.381Z,1023.29
2019-04-01T10:36:20.294Z,1023.22
2019-04-01T10:37:20.218Z,1023.21
2019-04-01T10:38:20.131Z,1023.25
2019-04-01T10:39:20.057Z,1023.39
2019-04-01T10:40:19.969Z,1023.36
2019-04-01T10:41:19.894Z,1023.37
2019-04-01T10:42:19.807Z,1023.35
2019-04-01T10:43:19.719Z,1023.25
2019-04-01T10:44:19.644Z,1023.32
2019-04-01T10:45:19.557Z,1023.37
2019-04-01T10:46:19.482Z,1023.29
2019-04-01T10:47:19.477Z,1023.32
2019-04-01T10:48:19.321Z,1023.28
2019-04-01T10:49:19.287Z,1023.41
2019-04-01T10:50:19.166Z,1023.35
2019-04-01T10:51:19.082Z,1023.38
2019-04-01T10:52:19.007Z,1023.41
2019-04-01T10:53:18.983Z,1023.26
2019-04-01T10:54:18.913Z,1023.28
2019-04-01T10:55:18.770Z,1023.26
2019-04-01T10:56:18.708Z,1023.23
2019-04-01T10:57:18.645Z,1023.22
2019-04-01T10:58:18.561Z,1023.16
2019-04-01T10:59:18.457Z,1023.21
2019-04-01T11:00:18.406Z,1023.13
2019-04-01T11:01:18.281Z,1023.08
2019-04-01T11:02:18.543Z,1023.02
2019-04-01T11:03:18.172Z,1023.04
2019-04-01T11:04:18.057Z,1022.96
2019-04-01T11:05:17.962Z,1022.87
2019-04-01T11:06:17.967Z,1022.99
2019-04-01T11:07:17.871Z,1022.95
2019-04-01T11:08:17.757Z,1022.86
2019-04-01T11:09:17.684Z,1022.89
2019-04-01T11:10:17.560Z,1022.89
2019-04-01T11:11:17.487Z,1022.91
2019-04-01T11:12:17.397Z,1022.94
2019-04-01T11:13:17.334Z,1023.01
2019-04-01T11:14:17.236Z,1023.04
2019-04-01T11:15:17.160Z,1022.98
2019-04-01T11:16:17.196Z,1022.99
2019-04-01T11:17:16.997Z,1022.98
2019-04-01T11:18:16.923Z,1023.01
2019-04-01T11:19:16.849Z,1022.95
2019-04-01T11:20:16.764Z,1022.96
2019-04-01T11:21:16.687Z,1022.97
2019-04-01T11:22:16.599Z,1022.93
2019-04-01T11:23:16.524Z,1022.95
2019-04-01T11:24:16.449Z,1022.87
2019-04-01T11:25:16.386Z,1022.90
2019-04-01T11:26:16.287Z,1022.84
2019-04-01T11:27:16.320Z,1022.87
2019-04-01T11:28:16.137Z,1022.86
2019-04-01T11:29:16.052Z,1022.83
2019-04-01T11:30:15.974Z,1022.85
2019-04-01T11:31:15.917Z,1022.79
2019-04-01T11:32:15.841Z,1022.81
2019-04-01T11:33:15.760Z,1022.76
2019-04-01T11:34:15.675Z,1022.73
2019-04-01T11:35:16.115Z,1022.73
2019-04-01T11:36:15.516Z,1022.73
2019-04-01T11:37:15.490Z,1022.76
2019-04-01T11:38:15.405Z,1022.79
2019-04-01T11:39:15.385Z,1022.72
2019-04-01T11:40:15.250Z,1022.75
2019-04-01T11:41:15.130Z,1022.73
2019-04-01T11:42:15.095Z,1022.73
2019-04-01T11:43:15.008Z,1022.75
2019-04-01T11:44:14.901Z,1022.73
2019-04-01T11:45:14.875Z,1022.68
2019-04-01T11:46:14.767Z,1022.66
2019-04-01T11:47:14.692Z,1022.61
2019-04-01T11:48:14.620Z,1022.64
2019-04-01T11:49:14.532Z,1022.63
2019-04-01T11:50:14.476Z,1022.60
2019-04-01T11:51:14.364Z,1022.59
2019-04-01T11:52:15.707Z,1022.55
2019-04-01T11:53:14.202Z,1022.50
2019-04-01T11:54:14.126Z,1022.54
2019-04-01T11:55:14.066Z,1022.54
2019-04-01T11:56:13.981Z,1022.47
2019-04-01T11:57:13.902Z,1022.43
2019-04-01T11:58:13.826Z,1022.46
2019-04-01T11:59:13.754Z,1022.50
2019-04-01T12:00:13.747Z,1022.42
2019-04-01T12:01:13.590Z,1022.39
2019-04-01T12:02:13.515Z,1022.49
2019-04-01T12:03:13.441Z,1022.48
2019-04-01T12:04:13.366Z,1022.37